Low Moor, Iowa
Current Conditions -  °F | °C
As of 4:35 PM on Monday 20 Oct 2014 (Local Time) from KCWI Reporting Station
Broken Clouds Broken Clouds  
Wind Chill: 66°   Ceiling: 6000
Heat Index: 66°   Visibility: 10mi
Dew Point: 43°   Wind: 10mph
Humidity: 43%   Direction: 330°NNW
Pressure: 29.96"   Gusts: 21mph
Location:  41.8°N, 90.35°W
Report Text: KCWI 202135Z AUTO 33009G18KT 10SM BKN060 19/06 A2996 RMK AO1
Loading
Personal Weather Stations






























Interactive Weather Map
Tropical Storm Tracking
New forecast layout! Learn more

10-Day Weather Forecast

Advertisements
Track Severe Weather on mobile